createdAt,value
2022-11-24T00:01:07.484Z,98368.97
2022-11-24T00:02:16.566Z,98370.91
2022-11-24T00:03:21.021Z,98376.16
2022-11-24T00:04:24.893Z,98377.94
2022-11-24T00:05:31.397Z,98373.53
2022-11-24T00:06:36.700Z,98378.69
2022-11-24T00:07:40.846Z,98376.81
2022-11-24T00:08:46.746Z,98381.06
2022-11-24T00:09:50.345Z,98379.34
2022-11-24T00:10:54.031Z,98373.22
2022-11-24T00:11:57.726Z,98381.84
2022-11-24T00:13:01.352Z,98374.72
2022-11-24T00:14:11.022Z,98388.78
2022-11-24T00:15:14.578Z,98378.28
2022-11-24T00:16:31.628Z,98384.38
2022-11-24T00:17:35.337Z,98390.56
2022-11-24T00:18:41.180Z,98381.91
2022-11-24T00:19:45.196Z,98391.38
2022-11-24T00:20:55.367Z,98391.38
2022-11-24T00:21:59.237Z,98380.81
2022-11-24T00:23:02.852Z,98389.53
2022-11-24T00:24:07.800Z,98393.84
2022-11-24T00:25:12.250Z,98400.88
2022-11-24T00:26:21.593Z,98389.63
2022-11-24T00:27:25.180Z,98394.69
2022-11-24T00:28:28.744Z,98385.97
2022-11-24T00:29:32.472Z,98391.56
2022-11-24T00:30:36.672Z,98388.84
2022-11-24T00:31:43.499Z,98394.94
2022-11-24T00:32:50.016Z,98395.72
2022-11-24T00:33:57.513Z,98400.03
2022-11-24T00:35:01.583Z,98398.41
2022-11-24T00:36:06.249Z,98405.25
2022-11-24T00:37:13.388Z,98402.81
2022-11-24T00:38:17.348Z,98406.19
2022-11-24T00:39:21.657Z,98407.03
2022-11-24T00:40:25.314Z,98406.19
2022-11-24T00:41:30.781Z,98416.59
2022-11-24T00:42:35.064Z,98403.44
2022-11-24T00:43:43.684Z,98402.50
2022-11-24T00:44:47.392Z,98402.50
2022-11-24T00:45:51.389Z,98405.88
2022-11-24T00:46:55.130Z,98412.06
2022-11-24T00:47:58.810Z,98408.59
2022-11-24T00:49:02.545Z,98404.94
2022-11-24T00:50:09.016Z,98407.47
2022-11-24T00:51:17.450Z,98408.28
2022-11-24T00:52:21.122Z,98410.09
2022-11-24T00:53:25.912Z,98409.13
2022-11-24T00:54:29.918Z,98404.78
2022-11-24T00:55:33.927Z,98409.88
2022-11-24T00:56:37.773Z,98405.38
2022-11-24T00:57:41.411Z,98407.06
2022-11-24T00:58:45.490Z,98404.41
2022-11-24T00:59:49.261Z,98408.63
2022-11-24T01:00:53.901Z,98404.13
2022-11-24T01:01:57.551Z,98404.03
2022-11-24T01:03:01.355Z,98406.59
2022-11-24T01:04:06.254Z,98404.00
2022-11-24T01:05:14.422Z,98402.97
2022-11-24T01:06:22.957Z,98410.00
2022-11-24T01:07:26.853Z,98411.75
2022-11-24T01:08:31.072Z,98410.00
2022-11-24T01:09:34.719Z,98416.16
2022-11-24T01:10:39.127Z,98412.75
2022-11-24T01:12:01.537Z,98411.84
2022-11-24T01:13:06.255Z,98413.69
2022-11-24T01:14:12.962Z,98418.09
2022-11-24T01:15:16.653Z,98413.69
2022-11-24T01:16:32.892Z,98417.41
2022-11-24T01:17:37.623Z,98412.19
2022-11-24T01:18:41.650Z,98419.88
2022-11-24T01:19:47.393Z,98417.41
2022-11-24T01:20:51.058Z,98415.47
2022-11-24T01:21:54.779Z,98411.91
2022-11-24T01:22:58.708Z,98420.81
2022-11-24T01:24:02.753Z,98417.25
2022-11-24T01:25:10.584Z,98424.19
2022-11-24T01:26:17.936Z,98425.22
2022-11-24T01:27:21.579Z,98426.06
2022-11-24T01:28:25.680Z,98430.44
2022-11-24T01:29:29.468Z,98430.44
2022-11-24T01:30:33.246Z,98426.13
2022-11-24T01:31:37.345Z,98422.50
2022-11-24T01:32:41.112Z,98427.91
2022-11-24T01:33:44.779Z,98431.31
2022-11-24T01:34:48.559Z,98429.44
2022-11-24T01:35:52.740Z,98428.69
2022-11-24T01:36:56.282Z,98426.97
2022-11-24T01:38:00.144Z,98430.78
2022-11-24T01:39:04.319Z,98423.50
2022-11-24T01:40:11.655Z,98427.84
2022-11-24T01:41:20.035Z,98426.97
2022-11-24T01:42:24.685Z,98428.75
2022-11-24T01:43:28.545Z,98432.22
2022-11-24T01:44:33.073Z,98425.28
2022-11-24T01:45:42.028Z,98429.69
2022-11-24T01:46:51.847Z,98432.22
2022-11-24T01:47:57.027Z,98425.03
2022-11-24T01:49:36.558Z,98426.75
2022-11-24T01:50:42.277Z,98425.88
2022-11-24T01:52:08.769Z,98427.06
2022-11-24T01:53:14.871Z,98433.00
2022-11-24T01:54:31.071Z,98425.81
2022-11-24T01:55:39.693Z,98425.88
2022-11-24T01:56:49.908Z,98435.28
2022-11-24T01:58:14.546Z,98436.06
2022-11-24T01:59:22.107Z,98436.97
2022-11-24T02:00:26.672Z,98438.00
2022-11-24T02:01:32.567Z,98441.47
2022-11-24T02:02:36.870Z,98444.00
2022-11-24T02:03:45.478Z,98445.88
2022-11-24T02:04:51.119Z,98445.03
2022-11-24T02:06:27.680Z,98452.72
2022-11-24T02:07:33.034Z,98446.53
2022-11-24T02:08:55.651Z,98454.28
2022-11-24T02:10:10.510Z,98450.00
2022-11-24T02:11:16.143Z,98442.94
2022-11-24T02:12:20.950Z,98455.22
2022-11-24T02:13:25.889Z,98443.00
2022-11-24T02:14:30.111Z,98452.41
2022-11-24T02:15:36.170Z,98444.19
2022-11-24T02:16:43.552Z,98453.97
2022-11-24T02:17:47.615Z,98452.06
2022-11-24T02:18:51.881Z,98452.81
2022-11-24T02:20:10.257Z,98439.16
2022-11-24T02:21:17.819Z,98457.72
2022-11-24T02:22:56.875Z,98453.97
2022-11-24T02:24:25.580Z,98446.03
2022-11-24T02:25:56.178Z,98449.50
2022-11-24T02:27:00.009Z,98455.63
2022-11-24T02:28:14.409Z,98461.94
2022-11-24T02:29:20.812Z,98457.53
2022-11-24T02:30:25.119Z,98455.94
2022-11-24T02:31:29.242Z,98459.13
2022-11-24T02:32:34.929Z,98459.09
2022-11-24T02:33:39.032Z,98459.31
2022-11-24T02:34:42.611Z,98467.94
2022-11-24T02:35:46.269Z,98458.38
2022-11-24T02:36:49.865Z,98459.09
2022-11-24T02:37:53.585Z,98463.31
2022-11-24T02:38:57.139Z,98457.03
2022-11-24T02:40:00.733Z,98457.97
2022-11-24T02:41:12.222Z,98449.13
2022-11-24T02:42:16.856Z,98458.59
2022-11-24T02:43:23.788Z,98452.41
2022-11-24T02:44:34.828Z,98461.34
2022-11-24T02:45:38.664Z,98451.78
2022-11-24T02:46:42.363Z,98448.22
2022-11-24T02:47:46.246Z,98453.56
2022-11-24T02:48:50.142Z,98458.06
2022-11-24T02:49:53.812Z,98459.41
2022-11-24T02:50:58.264Z,98461.09
2022-11-24T02:52:02.190Z,98463.63
2022-11-24T02:53:06.126Z,98459.22
2022-11-24T02:54:12.354Z,98457.44
2022-11-24T02:55:16.154Z,98466.94
2022-11-24T02:56:19.811Z,98457.97
2022-11-24T02:57:24.961Z,98458.91
2022-11-24T02:58:28.648Z,98459.59
2022-11-24T02:59:32.557Z,98458.69
2022-11-24T03:00:36.517Z,98457.75
2022-11-24T03:01:40.489Z,98461.13
2022-11-24T03:02:44.406Z,98459.44
2022-11-24T03:03:48.486Z,98458.59
2022-11-24T03:04:52.174Z,98454.28
2022-11-24T03:05:56.264Z,98457.75
2022-11-24T03:06:59.911Z,98466.03
2022-11-24T03:08:04.235Z,98459.94
2022-11-24T03:09:12.862Z,98462.47
2022-11-24T03:10:17.265Z,98468.47
2022-11-24T03:11:20.865Z,98465.00
2022-11-24T03:12:25.040Z,98465.00
2022-11-24T03:13:29.142Z,98460.47
2022-11-24T03:14:34.099Z,98462.06
2022-11-24T03:15:38.445Z,98463.13
2022-11-24T03:16:42.254Z,98462.16
2022-11-24T03:17:46.042Z,98462.16
2022-11-24T03:18:52.566Z,98462.16
2022-11-24T03:20:00.111Z,98462.81
2022-11-24T03:21:17.449Z,98467.22
2022-11-24T03:22:22.980Z,98459.25
2022-11-24T03:23:27.090Z,98460.03
2022-11-24T03:24:31.021Z,98464.28
2022-11-24T03:25:35.157Z,98451.31
2022-11-24T03:26:39.191Z,98461.03
2022-11-24T03:27:42.946Z,98465.34
2022-11-24T03:28:47.437Z,98460.81
2022-11-24T03:29:51.488Z,98464.19
2022-11-24T03:30:55.692Z,98454.53
2022-11-24T03:31:59.743Z,98454.72
2022-11-24T03:33:05.334Z,98459.13
2022-11-24T03:34:11.514Z,98457.47
2022-11-24T03:35:15.893Z,98458.69
2022-11-24T03:36:19.783Z,98459.25
2022-11-24T03:37:23.571Z,98462.59
2022-11-24T03:38:27.515Z,98455.66
2022-11-24T03:39:31.194Z,98456.41
2022-11-24T03:40:35.582Z,98464.19
2022-11-24T03:41:39.637Z,98463.53
2022-11-24T03:42:43.239Z,98464.38
2022-11-24T03:43:47.117Z,98458.94
2022-11-24T03:44:51.233Z,98469.34
2022-11-24T03:45:54.999Z,98459.69
2022-11-24T03:46:58.783Z,98468.50
2022-11-24T03:48:03.289Z,98468.59
2022-11-24T03:49:11.705Z,98469.34
2022-11-24T03:50:16.031Z,98468.44
2022-11-24T03:51:20.969Z,98473.84
2022-11-24T03:52:26.806Z,98474.59
2022-11-24T03:53:33.894Z,98470.19
2022-11-24T03:54:37.657Z,98476.38
2022-11-24T03:55:44.177Z,98474.00
2022-11-24T03:56:48.177Z,98474.78
2022-11-24T03:57:52.249Z,98487.38
2022-11-24T03:58:58.503Z,98483.97
2022-11-24T04:00:04.000Z,98492.09
2022-11-24T04:01:12.949Z,98489.91
2022-11-24T04:02:16.901Z,98489.91
2022-11-24T04:03:21.685Z,98487.53
2022-11-24T04:04:25.373Z,98488.38
2022-11-24T04:05:29.304Z,98486.53
2022-11-24T04:06:33.195Z,98481.19
2022-11-24T04:07:37.208Z,98489.16
2022-11-24T04:08:40.822Z,98491.00
2022-11-24T04:09:45.574Z,98486.16
2022-11-24T04:10:54.552Z,98484.38
2022-11-24T04:12:17.397Z,98492.34
2022-11-24T04:13:24.469Z,98488.22
2022-11-24T04:14:27.991Z,98491.53
2022-11-24T04:15:31.799Z,98492.44
2022-11-24T04:16:35.425Z,98490.94
2022-11-24T04:17:39.032Z,98495.94
2022-11-24T04:18:43.641Z,98494.22
2022-11-24T04:19:47.271Z,98496.69
2022-11-24T04:20:52.936Z,98489.75
2022-11-24T04:21:56.615Z,98490.28
2022-11-24T04:23:00.577Z,98492.81
2022-11-24T04:24:04.570Z,98491.88
2022-11-24T04:25:17.817Z,98497.91
2022-11-24T04:26:22.152Z,98485.63
2022-11-24T04:27:25.911Z,98494.19
2022-11-24T04:28:29.593Z,98494.19
2022-11-24T04:29:33.420Z,98497.56
2022-11-24T04:30:38.820Z,98497.56
2022-11-24T04:31:42.621Z,98498.44
2022-11-24T04:32:46.387Z,98492.31
2022-11-24T04:33:50.310Z,98501.13
2022-11-24T04:34:54.170Z,98503.66
2022-11-24T04:35:57.769Z,98493.09
2022-11-24T04:37:01.580Z,98495.72
2022-11-24T04:38:05.458Z,98504.28
2022-11-24T04:39:23.809Z,98503.34
2022-11-24T04:40:30.609Z,98513.31
2022-11-24T04:41:34.453Z,98504.84
2022-11-24T04:42:38.868Z,98506.56
2022-11-24T04:43:43.062Z,98504.69
2022-11-24T04:44:47.840Z,98516.81
2022-11-24T04:45:52.952Z,98510.69
2022-11-24T04:46:56.666Z,98511.88
2022-11-24T04:48:00.287Z,98518.81
2022-11-24T04:49:04.390Z,98515.28
2022-11-24T04:50:11.633Z,98516.13
2022-11-24T04:51:16.246Z,98509.09
2022-11-24T04:52:23.083Z,98515.94
2022-11-24T04:53:26.814Z,98513.41
2022-11-24T04:54:30.640Z,98507.63
2022-11-24T04:55:34.338Z,98514.50
2022-11-24T04:56:39.525Z,98513.06
2022-11-24T04:57:44.221Z,98518.06
2022-11-24T04:58:51.514Z,98513.72
2022-11-24T04:59:55.818Z,98519.75
2022-11-24T05:00:59.822Z,98521.28
2022-11-24T05:02:03.574Z,98527.38
2022-11-24T05:03:11.033Z,98517.06
2022-11-24T05:04:16.532Z,98523.16
2022-11-24T05:05:20.801Z,98516.34
2022-11-24T05:06:24.877Z,98524.16
2022-11-24T05:07:29.230Z,98521.53
2022-11-24T05:08:33.200Z,98524.22
2022-11-24T05:09:59.638Z,98525.25
2022-11-24T05:11:10.962Z,98524.31
2022-11-24T05:12:15.361Z,98526.19
2022-11-24T05:13:20.310Z,98524.16
2022-11-24T05:14:24.272Z,98526.63
2022-11-24T05:15:28.286Z,98526.84
2022-11-24T05:16:32.103Z,98532.19
2022-11-24T05:17:38.949Z,98526.84
2022-11-24T05:18:42.743Z,98530.25
2022-11-24T05:19:46.316Z,98527.56
2022-11-24T05:20:50.236Z,98521.28
2022-11-24T05:21:54.509Z,98521.19
2022-11-24T05:23:08.689Z,98528.22
2022-11-24T05:24:13.345Z,98525.44
2022-11-24T05:25:18.376Z,98527.22
2022-11-24T05:26:22.307Z,98524.75
2022-11-24T05:27:26.322Z,98530.31
2022-11-24T05:28:30.407Z,98526.84
2022-11-24T05:29:34.572Z,98529.25
2022-11-24T05:30:40.233Z,98533.56
2022-11-24T05:31:45.068Z,98531.78
2022-11-24T05:32:48.970Z,98532.41
2022-11-24T05:33:52.540Z,98535.94
2022-11-24T05:34:57.088Z,98535.88
2022-11-24T05:36:02.718Z,98536.03
2022-11-24T05:37:12.570Z,98533.41
2022-11-24T05:38:19.013Z,98535.03
2022-11-24T05:39:23.312Z,98537.56
2022-11-24T05:40:27.082Z,98536.81
2022-11-24T05:41:30.571Z,98533.25
2022-11-24T05:42:46.766Z,98533.06
2022-11-24T05:43:52.311Z,98538.31
2022-11-24T05:44:57.625Z,98539.34
2022-11-24T05:46:02.041Z,98539.56
2022-11-24T05:47:08.054Z,98535.09
2022-11-24T05:48:16.325Z,98548.22
2022-11-24T05:49:20.925Z,98548.06
2022-11-24T05:50:24.687Z,98550.94
2022-11-24T05:51:28.808Z,98559.56
2022-11-24T05:52:33.395Z,98547.38
2022-11-24T05:53:37.280Z,98553.41
2022-11-24T05:54:40.951Z,98555.94
2022-11-24T05:55:44.645Z,98555.09
2022-11-24T05:56:48.423Z,98550.53
2022-11-24T05:58:02.214Z,98552.47
2022-11-24T05:59:09.785Z,98561.88
2022-11-24T06:00:18.218Z,98554.84
2022-11-24T06:01:21.984Z,98556.69
2022-11-24T06:02:26.437Z,98562.81
2022-11-24T06:03:30.301Z,98559.41
2022-11-24T06:04:33.953Z,98567.22
2022-11-24T06:05:38.337Z,98558.56
2022-11-24T06:06:41.765Z,98561.88
2022-11-24T06:07:45.757Z,98556.63
2022-11-24T06:08:49.227Z,98563.28
2022-11-24T06:09:52.672Z,98568.00
2022-11-24T06:11:17.398Z,98566.75
2022-11-24T06:12:21.532Z,98568.69
2022-11-24T06:13:25.520Z,98570.41
2022-11-24T06:14:29.149Z,98570.31
2022-11-24T06:15:33.952Z,98569.31
2022-11-24T06:16:37.552Z,98572.78
2022-11-24T06:17:41.137Z,98573.38
2022-11-24T06:18:44.828Z,98576.88
2022-11-24T06:19:50.249Z,98574.16
2022-11-24T06:21:09.753Z,98570.75
2022-11-24T06:22:16.493Z,98579.66
2022-11-24T06:23:19.838Z,98580.41
2022-11-24T06:24:24.289Z,98580.41
2022-11-24T06:25:28.978Z,98576.00
2022-11-24T06:26:33.149Z,98576.88
2022-11-24T06:27:36.525Z,98575.94
2022-11-24T06:28:39.927Z,98579.66
2022-11-24T06:29:43.700Z,98581.34
2022-11-24T06:30:47.162Z,98577.78
2022-11-24T06:31:50.797Z,98582.88
2022-11-24T06:32:57.369Z,98592.38
2022-11-24T06:34:01.176Z,98591.59
2022-11-24T06:35:12.578Z,98583.13
2022-11-24T06:36:17.467Z,98590.75
2022-11-24T06:37:21.031Z,98585.50
2022-11-24T06:38:24.549Z,98591.59
2022-11-24T06:39:28.083Z,98589.53
2022-11-24T06:40:31.794Z,98592.25
2022-11-24T06:41:35.360Z,98591.53
2022-11-24T06:42:38.817Z,98586.47
2022-11-24T06:43:42.503Z,98584.06
2022-11-24T06:44:50.296Z,98590.16
2022-11-24T06:45:53.945Z,98595.94
2022-11-24T06:46:57.472Z,98588.06
2022-11-24T06:48:01.151Z,98589.75
2022-11-24T06:49:04.852Z,98590.56
2022-11-24T07:41:13.384Z,98624.75
2022-11-24T07:42:19.162Z,98629.28
2022-11-24T07:43:24.538Z,98635.47
2022-11-24T07:44:28.053Z,98625.91
2022-11-24T07:45:31.690Z,98629.06
2022-11-24T07:46:35.258Z,98632.38
2022-11-24T07:47:42.146Z,98625.75
2022-11-24T07:48:46.463Z,98634.38
2022-11-24T07:49:50.022Z,98636.03
2022-11-24T07:50:55.963Z,98629.75
2022-11-24T07:52:01.204Z,98636.66
2022-11-24T07:53:05.318Z,98632.38
2022-11-24T07:54:12.912Z,98634.38
2022-11-24T07:55:16.639Z,98627.13
2022-11-24T07:56:20.274Z,98634.72
2022-11-24T07:57:24.015Z,98642.41
2022-11-24T07:58:32.596Z,98630.19
2022-11-24T07:59:36.796Z,98635.09
2022-11-24T08:00:40.283Z,98634.50
2022-11-24T08:01:43.816Z,98630.00
2022-11-24T08:02:47.999Z,98636.94
2022-11-24T08:03:51.920Z,98640.41
2022-11-24T08:05:01.668Z,98629.91
2022-11-24T08:06:23.574Z,98635.03
2022-11-24T08:07:29.265Z,98634.53
2022-11-24T08:08:35.993Z,98644.97
2022-11-24T08:09:39.676Z,98641.44
2022-11-24T08:10:43.210Z,98648.22
2022-11-24T08:11:46.696Z,98647.22
2022-11-24T08:12:50.231Z,98649.06
2022-11-24T08:13:54.148Z,98648.22
2022-11-24T08:14:57.844Z,98650.22
2022-11-24T08:16:15.701Z,98647.44
2022-11-24T08:17:19.356Z,98650.69
2022-11-24T08:18:24.695Z,98655.00
2022-11-24T08:19:28.382Z,98651.84
2022-11-24T08:20:32.030Z,98657.19
2022-11-24T08:21:35.767Z,98656.16
2022-11-24T08:22:39.488Z,98652.78
2022-11-24T08:23:43.584Z,98659.94
2022-11-24T08:24:48.984Z,98658.94
2022-11-24T08:25:57.026Z,98657.19
2022-11-24T08:27:01.019Z,98660.66
2022-11-24T08:28:05.042Z,98655.53
2022-11-24T08:29:13.441Z,98659.63
2022-11-24T08:30:17.599Z,98656.09
2022-11-24T08:31:21.618Z,98653.47
2022-11-24T08:32:27.622Z,98662.19
2022-11-24T08:33:31.337Z,98654.16
2022-11-24T08:34:35.296Z,98658.69
2022-11-24T08:35:40.585Z,98661.19
2022-11-24T08:36:45.122Z,98661.88
2022-11-24T08:37:48.841Z,98662.72
2022-11-24T08:38:57.904Z,98665.22
2022-11-24T08:40:01.832Z,98670.38
2022-11-24T08:41:14.931Z,98665.13
2022-11-24T08:42:20.114Z,98666.06
2022-11-24T08:43:24.202Z,98669.44
2022-11-24T08:44:28.886Z,98670.28
2022-11-24T08:45:36.761Z,98670.38
2022-11-24T08:46:45.957Z,98670.06
2022-11-24T08:47:54.897Z,98668.22
2022-11-24T08:49:10.229Z,98671.78
2022-11-24T08:50:17.827Z,98673.53
2022-11-24T08:51:26.560Z,98667.50
2022-11-24T08:52:30.363Z,98670.75
2022-11-24T08:53:34.310Z,98668.22
2022-11-24T08:54:38.111Z,98678.56
2022-11-24T08:55:41.732Z,98664.50
2022-11-24T08:56:49.100Z,98677.63
2022-11-24T08:57:52.780Z,98671.78
2022-11-24T08:58:57.301Z,98673.69
2022-11-24T09:00:01.639Z,98675.25
2022-11-24T09:01:17.699Z,98677.03
2022-11-24T09:02:21.262Z,98672.38
2022-11-24T09:03:24.915Z,98672.38
2022-11-24T09:04:28.830Z,98676.94
2022-11-24T09:06:58.842Z,98677.06
2022-11-24T09:08:02.467Z,98680.41
2022-11-24T09:09:08.229Z,98673.59
2022-11-24T09:10:15.073Z,98678.00
2022-11-24T09:11:19.876Z,98681.72
2022-11-24T09:12:24.587Z,98679.03
2022-11-24T09:13:28.948Z,98683.13
2022-11-24T09:14:33.607Z,98677.63
2022-11-24T09:15:50.549Z,98676.84
2022-11-24T09:16:54.308Z,98681.19
2022-11-24T09:17:58.039Z,98670.59
2022-11-24T09:19:10.392Z,98674.00
2022-11-24T09:21:39.749Z,98671.22
2022-11-24T09:22:43.327Z,98682.34
2022-11-24T09:23:50.586Z,98676.25
2022-11-24T09:24:53.945Z,98673.69
2022-11-24T09:26:14.221Z,98677.31
2022-11-24T09:27:18.747Z,98678.09
2022-11-24T09:28:22.218Z,98684.13
2022-11-24T09:29:25.833Z,98676.94
2022-11-24T09:30:29.600Z,98680.41
2022-11-24T09:31:37.837Z,98682.06
2022-11-24T09:32:41.396Z,98674.19
2022-11-24T09:33:45.886Z,98679.34
2022-11-24T09:34:51.566Z,98683.03
2022-11-24T09:35:55.149Z,98681.34
2022-11-24T09:36:59.262Z,98685.81
2022-11-24T09:38:03.140Z,98677.03
2022-11-24T09:39:09.137Z,98684.72
2022-11-24T09:40:16.471Z,98681.81
2022-11-24T09:41:42.065Z,98685.97
2022-11-24T09:43:40.340Z,98688.59
2022-11-24T09:46:03.266Z,98679.31
2022-11-24T09:47:36.205Z,98682.75
2022-11-24T09:48:55.051Z,98680.78
2022-11-24T09:50:25.123Z,98685.06
2022-11-24T09:51:33.848Z,98678.09
2022-11-24T09:53:03.683Z,98680.56
2022-11-24T09:54:27.052Z,98681.34
2022-11-24T09:55:52.751Z,98676.00
2022-11-24T09:57:01.661Z,98677.03
2022-11-24T09:58:19.977Z,98681.25
2022-11-24T09:59:32.812Z,98684.72
2022-11-24T10:00:46.206Z,98681.13
2022-11-24T10:01:51.952Z,98680.50
2022-11-24T10:02:55.958Z,98683.75
2022-11-24T10:04:05.985Z,98681.88
2022-11-24T10:05:13.499Z,98682.59
2022-11-24T10:06:39.019Z,98686.13
2022-11-24T10:08:32.857Z,98687.84
2022-11-24T10:10:03.451Z,98688.69
2022-11-24T10:11:16.144Z,98684.34
2022-11-24T10:13:25.135Z,98678.63
2022-11-24T10:14:52.858Z,98683.66
2022-11-24T10:17:03.415Z,98685.44
2022-11-24T10:18:40.408Z,98677.19
2022-11-24T10:20:33.464Z,98682.56
2022-11-24T10:22:20.249Z,98678.88
2022-11-24T10:23:26.592Z,98682.34
2022-11-24T10:25:26.220Z,98677.09
2022-11-24T10:26:39.118Z,98680.56
2022-11-24T10:27:50.319Z,98683.03
2022-11-24T10:28:56.443Z,98684.59
2022-11-24T10:30:01.717Z,98681.19
2022-11-24T10:31:34.906Z,98681.13
2022-11-24T10:32:45.954Z,98685.53
2022-11-24T10:33:50.765Z,98682.19
2022-11-24T10:35:00.011Z,98684.59
2022-11-24T10:36:21.724Z,98685.28
2022-11-24T10:37:43.294Z,98683.66
2022-11-24T10:39:03.727Z,98685.44
2022-11-24T10:40:55.851Z,98675.78
2022-11-24T10:42:27.324Z,98676.25
2022-11-24T10:43:31.282Z,98680.31
2022-11-24T10:44:34.987Z,98679.47
2022-11-24T10:45:40.411Z,98680.19
2022-11-24T10:46:44.603Z,98674.84
2022-11-24T10:47:50.337Z,98676.41
2022-11-24T10:49:02.213Z,98682.25
2022-11-24T10:50:31.807Z,98678.78
2022-11-24T10:52:02.220Z,98681.28
2022-11-24T10:53:28.041Z,98687.38
2022-11-24T10:54:33.081Z,98688.97
2022-11-24T10:55:58.256Z,98679.31
2022-11-24T10:57:02.009Z,98680.06
2022-11-24T10:58:18.586Z,98686.25
2022-11-24T10:59:25.206Z,98687.50
2022-11-24T11:00:34.431Z,98682.13
2022-11-24T11:01:39.352Z,98683.81
2022-11-24T11:02:43.827Z,98681.19
2022-11-24T11:03:58.386Z,98679.41
2022-11-24T11:05:43.332Z,98685.97
2022-11-24T11:06:48.859Z,98676.47
2022-11-24T11:08:14.363Z,98684.97
2022-11-24T11:09:21.938Z,98678.94
2022-11-24T11:10:25.647Z,98677.16
2022-11-24T11:11:30.585Z,98678.09
2022-11-24T11:12:45.222Z,98680.19
2022-11-24T11:14:03.527Z,98678.50
2022-11-24T11:15:31.087Z,98682.28
2022-11-24T11:16:46.215Z,98682.06
2022-11-24T11:17:55.388Z,98679.66
2022-11-24T11:19:54.217Z,98672.84
2022-11-24T11:21:02.205Z,98680.25
2022-11-24T11:22:12.706Z,98678.84
2022-11-24T11:23:38.394Z,98680.72
2022-11-24T11:24:47.789Z,98678.84
2022-11-24T11:25:51.510Z,98683.81
2022-11-24T11:27:08.303Z,98680.03
2022-11-24T11:28:22.167Z,98684.44
2022-11-24T11:31:20.309Z,98681.63
2022-11-24T11:34:22.107Z,98682.50
2022-11-24T11:35:34.027Z,98685.81
2022-11-24T11:36:46.589Z,98679.09
2022-11-24T11:37:51.715Z,98682.56
2022-11-24T11:38:55.899Z,98686.59
2022-11-24T11:40:00.583Z,98682.91
2022-11-24T11:41:11.620Z,98682.72
2022-11-24T11:44:13.831Z,98689.22
2022-11-24T11:45:26.803Z,98684.03
2022-11-24T11:46:33.650Z,98683.34
2022-11-24T11:48:03.634Z,98682.19
2022-11-24T11:49:13.601Z,98685.56
2022-11-24T11:50:28.267Z,98689.06
2022-11-24T11:53:46.763Z,98681.72
2022-11-24T11:55:39.594Z,98677.38
2022-11-24T11:56:54.729Z,98683.19
2022-11-24T11:58:26.929Z,98685.91
2022-11-24T12:00:14.791Z,98682.94
2022-11-24T12:02:09.652Z,98677.78
2022-11-24T12:03:50.621Z,98683.34
2022-11-24T12:05:04.344Z,98679.81
2022-11-24T12:06:41.421Z,98685.66
2022-11-24T12:08:10.894Z,98682.91
2022-11-24T12:09:50.711Z,98688.16
2022-11-24T12:11:13.956Z,98687.31
2022-11-24T12:12:48.698Z,98683.81
2022-11-24T12:14:24.105Z,98692.47
2022-11-24T12:15:41.203Z,98686.13
2022-11-24T12:17:10.379Z,98686.97
2022-11-24T12:18:57.546Z,98684.97
2022-11-24T12:20:52.096Z,98691.31
2022-11-24T12:22:37.136Z,98693.84
2022-11-24T12:24:11.604Z,98694.78
2022-11-24T12:25:47.145Z,98692.22
2022-11-24T12:27:06.195Z,98694.00
2022-11-24T12:29:01.137Z,98693.09
2022-11-24T12:30:17.581Z,98698.66
2022-11-24T12:31:56.839Z,98698.34
2022-11-24T12:34:12.529Z,98697.84
2022-11-24T12:35:35.226Z,98703.34
2022-11-24T12:37:14.621Z,98693.78
2022-11-24T12:38:46.271Z,98697.09
2022-11-24T12:40:35.737Z,98695.56
2022-11-24T12:42:03.484Z,98693.78
2022-11-24T12:43:35.106Z,98700.66
2022-11-24T12:45:33.458Z,98704.34
2022-11-24T12:46:58.575Z,98698.94
2022-11-24T12:48:32.034Z,98702.63
2022-11-24T12:50:11.253Z,98699.09
2022-11-24T12:51:39.501Z,98700.81
2022-11-24T12:53:27.385Z,98707.03
2022-11-24T12:54:47.810Z,98712.06
2022-11-24T12:55:54.899Z,98708.59
2022-11-24T12:58:11.308Z,98707.59
2022-11-24T13:00:16.172Z,98702.25
2022-11-24T13:01:39.572Z,98709.81
2022-11-24T13:03:04.129Z,98711.59
2022-11-24T13:04:50.143Z,98716.31
2022-11-24T13:06:17.502Z,98714.53
2022-11-24T13:07:44.367Z,98712.63
2022-11-24T13:08:49.327Z,98714.41
2022-11-24T13:10:46.933Z,98710.84
2022-11-24T13:12:09.675Z,98711.53
2022-11-24T13:13:17.411Z,98722.88
2022-11-24T13:14:32.023Z,98721.88
2022-11-24T13:17:50.225Z,98716.47
2022-11-24T13:19:18.981Z,98719.34
2022-11-24T13:20:31.952Z,98727.28
2022-11-24T13:21:41.768Z,98717.63
2022-11-24T13:23:17.578Z,98721.34
2022-11-24T13:24:28.578Z,98723.72
2022-11-24T13:25:36.936Z,98727.06
2022-11-24T13:26:43.684Z,98726.13
2022-11-24T13:27:53.007Z,98730.44
2022-11-24T13:29:18.318Z,98733.94
2022-11-24T13:30:34.353Z,98733.84
2022-11-24T13:31:38.031Z,98736.34
2022-11-24T13:32:42.110Z,98730.75
2022-11-24T13:33:46.429Z,98740.19
2022-11-24T13:34:55.018Z,98748.91
2022-11-24T13:36:04.591Z,98758.13
2022-11-24T13:37:35.701Z,98742.63
2022-11-24T13:38:46.195Z,98759.00
2022-11-24T13:39:58.030Z,98760.38
2022-11-24T13:41:21.345Z,98767.41
2022-11-24T13:42:44.002Z,98763.63
2022-11-24T13:44:18.379Z,98768.09
2022-11-24T13:45:42.083Z,98767.03
2022-11-24T13:47:34.228Z,98771.97
2022-11-24T13:48:53.024Z,98769.34
2022-11-24T13:49:57.179Z,98772.91
2022-11-24T13:51:03.242Z,98772.47
2022-11-24T13:52:46.432Z,98767.16
2022-11-24T13:53:54.057Z,98773.25
2022-11-24T13:54:58.614Z,98774.13
2022-11-24T13:56:14.331Z,98776.97
2022-11-24T13:57:39.670Z,98780.03
2022-11-24T13:58:54.368Z,98786.91
2022-11-24T14:00:03.475Z,98789.31
2022-11-24T14:01:24.043Z,98787.38
2022-11-24T14:02:29.490Z,98783.81
2022-11-24T14:04:30.146Z,98799.16
2022-11-24T14:05:46.135Z,98800.19
2022-11-24T14:06:52.950Z,98799.53
2022-11-24T14:07:57.195Z,98805.13
2022-11-24T14:09:26.993Z,98802.16
2022-11-24T14:10:38.246Z,98805.44
2022-11-24T14:11:42.754Z,98807.13
2022-11-24T14:12:46.746Z,98808.06
2022-11-24T14:13:50.576Z,98806.63
2022-11-24T14:15:20.975Z,98817.63
2022-11-24T14:16:25.035Z,98813.34
2022-11-24T14:17:29.398Z,98821.84
2022-11-24T14:18:36.133Z,98820.22
2022-11-24T14:19:40.857Z,98819.31
2022-11-24T14:20:44.532Z,98825.28
2022-11-24T14:21:49.577Z,98824.28
2022-11-24T14:22:54.998Z,98821.56
2022-11-24T14:24:13.335Z,98835.63
2022-11-24T14:25:32.083Z,98830.97
2022-11-24T14:26:40.071Z,98828.03
2022-11-24T14:27:43.801Z,98836.31
2022-11-24T14:28:50.158Z,98836.75
2022-11-24T14:29:58.110Z,98837.88
2022-11-24T14:31:26.517Z,98832.91
2022-11-24T14:32:31.059Z,98830.34
2022-11-24T14:33:35.972Z,98837.03
2022-11-24T14:34:40.026Z,98837.56
2022-11-24T14:35:47.954Z,98841.88
2022-11-24T14:36:58.056Z,98840.75
2022-11-24T14:38:06.282Z,98838.91
2022-11-24T14:39:23.089Z,98838.13
2022-11-24T14:40:45.471Z,98842.25
2022-11-24T14:42:16.728Z,98849.97
2022-11-24T14:43:33.156Z,98852.81
2022-11-24T14:45:04.580Z,98853.88
2022-11-24T14:46:24.225Z,98849.69
2022-11-24T14:47:36.469Z,98850.28
2022-11-24T14:48:52.882Z,98850.59
2022-11-24T14:50:13.262Z,98848.56
2022-11-24T14:51:28.224Z,98855.22
2022-11-24T14:52:32.294Z,98852.75
2022-11-24T14:53:36.997Z,98852.56
2022-11-24T14:54:55.582Z,98859.28
2022-11-24T14:57:04.753Z,98851.06